Canalou, Missouri
Current Conditions -  °F | °C
As of 1:53 AM on Thursday 18 Dec 2014 (Local Time) from KCGI Reporting Station
Overcast Overcast  
Wind Chill: 33°   Ceiling: 4900
Heat Index: 33°   Visibility: 7mi
Dew Point: 32°   Wind: 0mph
Humidity: 96%   Direction: NA
Pressure: 30.29"   Gusts: NA
Location:  36.76°N, 89.69°W
Report Text: KCGI 180753Z AUTO 00000KT 7SM BKN049 OVC065 01/00 A3029 RMK AO2 RAE21UPB05E38 SLP259 P0003 T00060000 TSNO
Loading
Personal Weather Stations






























Interactive Weather Map New forecast layout! Learn more

10-Day Weather Forecast

Advertisements
Track Severe Weather on mobile